createdAt,value
2019-01-19T00:00:07.629Z,13.07
2019-01-19T00:02:54.790Z,12.57
2019-01-19T00:05:42.958Z,13.10
2019-01-19T00:08:20.927Z,11.97
2019-01-19T00:10:59.631Z,14.60
2019-01-19T00:13:39.414Z,13.37
2019-01-19T00:16:19.362Z,12.07
2019-01-19T00:19:31.593Z,12.40
2019-01-19T00:22:23.292Z,13.50
2019-01-19T00:25:34.311Z,12.90
2019-01-19T00:28:10.554Z,10.00
2019-01-19T00:30:47.824Z,12.23
2019-01-19T00:33:56.777Z,11.57
2019-01-19T00:36:46.097Z,14.97
2019-01-19T00:39:43.710Z,11.10
2019-01-19T00:42:36.243Z,10.97
2019-01-19T00:45:17.126Z,13.40
2019-01-19T00:48:19.681Z,12.00
2019-01-19T00:51:15.257Z,11.03
2019-01-19T00:53:48.050Z,12.83
2019-01-19T00:56:29.890Z,15.37
2019-01-19T00:59:02.789Z,13.73
2019-01-19T01:01:57.498Z,13.10
2019-01-19T01:04:49.934Z,11.33
2019-01-19T01:07:28.890Z,10.63
2019-01-19T01:10:01.390Z,11.57
2019-01-19T01:13:01.475Z,12.70
2019-01-19T01:15:45.920Z,12.10
2019-01-19T01:18:27.129Z,11.80
2019-01-19T01:21:27.841Z,12.13
2019-01-19T01:24:05.285Z,13.43
2019-01-19T01:27:15.397Z,10.47
2019-01-19T01:30:26.208Z,10.60
2019-01-19T01:33:33.339Z,12.77
2019-01-19T01:36:13.849Z,9.73
2019-01-19T01:38:57.754Z,11.97
2019-01-19T01:41:50.841Z,12.00
2019-01-19T01:44:33.262Z,12.17
2019-01-19T01:47:21.195Z,15.17
2019-01-19T01:49:56.434Z,12.00
2019-01-19T01:52:55.448Z,12.57
2019-01-19T01:55:33.870Z,15.03
2019-01-19T01:58:11.691Z,11.10
2019-01-19T02:00:45.241Z,10.70
2019-01-19T02:03:28.772Z,10.17
2019-01-19T02:06:07.973Z,13.30
2019-01-19T02:08:47.108Z,14.70
2019-01-19T02:11:28.196Z,12.73
2019-01-19T02:14:06.867Z,13.90
2019-01-19T02:16:45.300Z,12.43
2019-01-19T02:19:26.648Z,10.80
2019-01-19T02:22:16.961Z,13.63
2019-01-19T02:25:07.935Z,14.30
2019-01-19T02:28:00.750Z,15.13
2019-01-19T02:30:54.141Z,15.00
2019-01-19T02:33:33.069Z,12.77
2019-01-19T02:36:18.199Z,13.87
2019-01-19T02:39:13.174Z,9.63
2019-01-19T02:42:06.097Z,13.43
2019-01-19T02:45:17.948Z,12.70
2019-01-19T02:47:57.382Z,11.97
2019-01-19T02:50:34.176Z,13.00
2019-01-19T02:53:16.441Z,11.93
2019-01-19T02:55:59.750Z,11.47
2019-01-19T02:58:35.911Z,14.17
2019-01-19T03:01:29.311Z,11.87
2019-01-19T03:04:07.068Z,14.53
2019-01-19T03:06:46.122Z,14.83
2019-01-19T03:09:28.569Z,12.93
2019-01-19T03:12:25.254Z,14.97
2019-01-19T03:15:12.811Z,12.63
2019-01-19T03:17:58.714Z,12.17
2019-01-19T03:20:46.557Z,12.13
2019-01-19T03:23:41.794Z,11.37
2019-01-19T03:26:38.833Z,12.30
2019-01-19T03:29:26.451Z,8.77
2019-01-19T03:32:09.238Z,11.63
2019-01-19T03:35:06.512Z,11.53
2019-01-19T03:37:45.940Z,9.87
2019-01-19T03:40:35.043Z,13.67
2019-01-19T03:43:49.347Z,11.97
2019-01-19T03:46:33.216Z,11.57
2019-01-19T03:49:32.292Z,10.30
2019-01-19T03:52:25.652Z,10.33
2019-01-19T03:55:16.197Z,11.80
2019-01-19T03:58:10.580Z,15.57
2019-01-19T04:00:51.564Z,11.30
2019-01-19T04:03:29.752Z,9.30
2019-01-19T04:06:21.658Z,10.20
2019-01-19T04:09:15.568Z,9.10
2019-01-19T04:11:54.913Z,9.23
2019-01-19T04:14:43.791Z,10.90
2019-01-19T04:17:39.128Z,10.10
2019-01-19T04:20:41.799Z,9.77
2019-01-19T04:23:08.849Z,10.37
2019-01-19T04:25:47.175Z,8.03
2019-01-19T04:28:15.742Z,9.50
2019-01-19T04:30:42.740Z,9.23
2019-01-19T04:33:10.325Z,9.40
2019-01-19T04:35:37.369Z,10.43
2019-01-19T04:38:04.421Z,8.90
2019-01-19T04:40:31.401Z,8.83
2019-01-19T04:42:58.380Z,9.07
2019-01-19T04:45:25.346Z,10.60
2019-01-19T04:47:52.324Z,8.20
2019-01-19T04:50:19.367Z,6.87
2019-01-19T04:52:46.321Z,7.60
2019-01-19T04:55:13.313Z,9.20
2019-01-19T04:57:40.330Z,8.87
2019-01-19T05:00:12.149Z,8.90
2019-01-19T05:02:39.079Z,11.23
2019-01-19T05:05:06.106Z,28.30
2019-01-19T05:07:33.046Z,11.63
2019-01-19T05:10:00.234Z,10.03
2019-01-19T05:12:27.068Z,8.53
2019-01-19T05:14:54.060Z,9.17
2019-01-19T05:17:21.099Z,9.83
2019-01-19T05:19:48.184Z,12.63
2019-01-19T05:22:15.137Z,8.60
2019-01-19T05:24:42.122Z,9.77
2019-01-19T05:27:09.216Z,9.30
2019-01-19T05:29:36.274Z,9.77
2019-01-19T05:32:03.370Z,7.30
2019-01-19T05:34:31.672Z,8.43
2019-01-19T05:36:58.773Z,10.70
2019-01-19T05:39:25.868Z,11.00
2019-01-19T05:41:52.973Z,9.13
2019-01-19T05:44:20.031Z,13.40
2019-01-19T05:46:47.065Z,9.87
2019-01-19T05:49:14.136Z,9.93
2019-01-19T05:51:41.182Z,9.53
2019-01-19T05:54:08.241Z,9.27
2019-01-19T05:56:35.281Z,9.50
2019-01-19T05:59:02.245Z,10.07
2019-01-19T06:01:29.235Z,9.83
2019-01-19T06:03:56.226Z,11.13
2019-01-19T06:06:23.320Z,9.43
2019-01-19T06:08:50.332Z,9.50
2019-01-19T06:11:17.457Z,9.90
2019-01-19T06:13:44.586Z,8.43
2019-01-19T06:16:11.604Z,9.90
2019-01-19T06:18:38.708Z,10.03
2019-01-19T06:21:06.362Z,8.87
2019-01-19T06:23:33.434Z,11.03
2019-01-19T06:26:00.513Z,8.23
2019-01-19T06:28:27.588Z,8.73
2019-01-19T06:30:54.646Z,12.67
2019-01-19T06:33:21.722Z,10.00
2019-01-19T06:35:50.467Z,9.23
2019-01-19T06:38:17.591Z,8.67
2019-01-19T06:40:44.688Z,10.07
2019-01-19T06:43:11.723Z,9.03
2019-01-19T06:45:38.788Z,9.77
2019-01-19T06:48:05.854Z,8.50
2019-01-19T06:50:32.926Z,9.43
2019-01-19T06:52:59.964Z,8.37
2019-01-19T06:55:31.933Z,10.23
2019-01-19T06:57:59.023Z,9.30
2019-01-19T07:00:26.122Z,8.47
2019-01-19T07:02:53.265Z,11.10
2019-01-19T07:05:20.299Z,11.07
2019-01-19T07:07:47.359Z,8.83
2019-01-19T07:10:17.664Z,10.87
2019-01-19T07:12:44.700Z,11.20
2019-01-19T07:15:12.390Z,7.50
2019-01-19T07:17:39.519Z,9.53
2019-01-19T07:20:09.157Z,8.30
2019-01-19T07:22:36.242Z,7.57
2019-01-19T07:25:03.669Z,9.57
2019-01-19T07:27:30.653Z,8.73
2019-01-19T07:29:57.588Z,12.63
2019-01-19T07:32:24.553Z,7.53
2019-01-19T07:34:51.488Z,7.03
2019-01-19T07:37:18.584Z,8.73
2019-01-19T07:39:45.533Z,7.63
2019-01-19T07:42:12.463Z,7.53
2019-01-19T07:44:39.421Z,8.40
2019-01-19T07:47:06.367Z,8.50
2019-01-19T07:49:33.313Z,8.37
2019-01-19T07:52:00.257Z,8.90
2019-01-19T07:54:27.219Z,8.07
2019-01-19T07:56:54.158Z,9.63
2019-01-19T07:59:21.129Z,7.63
2019-01-19T08:01:48.079Z,10.13
2019-01-19T08:04:15.012Z,9.23
2019-01-19T08:06:41.985Z,10.37
2019-01-19T08:09:09.077Z,7.67
2019-01-19T08:11:36.029Z,9.47
2019-01-19T08:14:03.161Z,9.20
2019-01-19T08:16:30.209Z,7.77
2019-01-19T08:18:57.248Z,9.87
2019-01-19T08:21:24.243Z,8.17
2019-01-19T08:23:51.288Z,7.73
2019-01-19T08:26:18.337Z,8.97
2019-01-19T08:28:45.318Z,7.53
2019-01-19T08:31:12.375Z,8.90
2019-01-19T08:33:39.385Z,8.13
2019-01-19T08:36:06.444Z,8.67
2019-01-19T08:38:34.876Z,9.87
2019-01-19T08:41:01.878Z,8.37
2019-01-19T08:43:34.934Z,8.43
2019-01-19T08:46:02.274Z,7.57
2019-01-19T08:48:28.875Z,11.13
2019-01-19T08:50:55.855Z,8.50
2019-01-19T08:53:22.824Z,9.23
2019-01-19T08:55:49.896Z,8.20
2019-01-19T08:58:17.446Z,11.13
2019-01-19T09:00:44.481Z,6.97
2019-01-19T09:03:11.541Z,7.30
2019-01-19T09:05:38.619Z,7.03
2019-01-19T09:08:05.625Z,7.27
2019-01-19T09:10:32.588Z,6.30
2019-01-19T09:12:59.549Z,7.63
2019-01-19T09:15:26.516Z,7.00
2019-01-19T09:17:53.463Z,7.27
2019-01-19T09:20:20.432Z,6.87
2019-01-19T09:22:47.603Z,7.47
2019-01-19T09:25:14.631Z,9.00
2019-01-19T09:27:41.653Z,7.40
2019-01-19T09:30:12.748Z,7.87
2019-01-19T09:32:39.769Z,8.10
2019-01-19T09:35:07.152Z,8.60
2019-01-19T09:37:40.831Z,7.97
2019-01-19T09:40:04.560Z,8.60
2019-01-19T09:42:31.574Z,8.13
2019-01-19T09:44:58.604Z,10.07
2019-01-19T09:47:25.688Z,10.67
2019-01-19T09:49:52.741Z,10.53
2019-01-19T09:52:21.280Z,11.00
2019-01-19T09:54:46.908Z,12.20
2019-01-19T09:57:13.967Z,9.37
2019-01-19T09:59:41.077Z,12.90
2019-01-19T10:02:08.125Z,10.37
2019-01-19T10:04:35.178Z,12.73
2019-01-19T10:07:02.217Z,10.77
2019-01-19T10:09:29.293Z,10.70
2019-01-19T10:11:56.484Z,11.57
2019-01-19T10:14:23.572Z,12.27
2019-01-19T10:16:50.703Z,12.77
2019-01-19T10:19:17.799Z,10.23
2019-01-19T10:21:44.881Z,11.33
2019-01-19T10:24:11.919Z,11.30
2019-01-19T10:26:39.040Z,10.73
2019-01-19T10:29:06.095Z,11.67
2019-01-19T10:31:33.250Z,15.20
2019-01-19T10:34:00.306Z,10.47
2019-01-19T10:36:27.402Z,10.93
2019-01-19T10:38:54.454Z,12.53
2019-01-19T10:41:22.043Z,13.63
2019-01-19T10:43:49.367Z,12.83
2019-01-19T10:46:16.257Z,14.63
2019-01-19T10:48:43.285Z,12.33
2019-01-19T10:51:10.385Z,12.97
2019-01-19T10:53:37.444Z,12.90
2019-01-19T10:56:04.467Z,11.07
2019-01-19T10:58:31.520Z,13.17
2019-01-19T11:00:58.530Z,15.70
2019-01-19T11:03:25.616Z,12.87
2019-01-19T11:05:52.758Z,13.50
2019-01-19T11:08:19.870Z,12.77
2019-01-19T11:10:46.934Z,12.17
2019-01-19T11:13:13.995Z,12.33
2019-01-19T11:15:41.091Z,13.63
2019-01-19T11:18:08.151Z,10.17
2019-01-19T11:20:35.235Z,11.30
2019-01-19T11:23:02.325Z,13.53
2019-01-19T11:25:29.390Z,12.47
2019-01-19T11:27:56.527Z,10.60
2019-01-19T11:30:25.487Z,11.87
2019-01-19T11:32:52.448Z,10.87
2019-01-19T11:35:19.416Z,11.00
2019-01-19T11:37:46.592Z,12.13
2019-01-19T11:40:16.040Z,10.60
2019-01-19T11:42:43.597Z,9.43
2019-01-19T11:45:13.834Z,11.33
2019-01-19T11:47:40.968Z,9.63
2019-01-19T11:50:08.170Z,11.00
2019-01-19T11:52:35.276Z,10.93
2019-01-19T11:55:02.324Z,9.73
2019-01-19T11:57:29.393Z,9.57
2019-01-19T11:59:56.517Z,10.23
2019-01-19T12:02:23.483Z,10.57
2019-01-19T12:04:50.469Z,10.20
2019-01-19T12:07:18.439Z,9.70
2019-01-19T12:09:44.416Z,11.80
2019-01-19T12:12:11.641Z,11.77
2019-01-19T12:14:38.693Z,11.90
2019-01-19T12:17:05.689Z,12.63
2019-01-19T12:19:32.653Z,15.03
2019-01-19T12:21:59.586Z,13.23
2019-01-19T12:24:26.649Z,10.33
2019-01-19T12:26:53.608Z,12.30
2019-01-19T12:29:20.604Z,12.37
2019-01-19T12:31:47.552Z,10.97
2019-01-19T12:34:14.497Z,12.43
2019-01-19T12:36:41.457Z,11.17
2019-01-19T12:39:08.439Z,12.83
2019-01-19T12:41:35.857Z,10.60
2019-01-19T12:44:04.501Z,10.43
2019-01-19T12:46:31.464Z,10.90
2019-01-19T12:48:58.433Z,11.27
2019-01-19T12:51:25.404Z,12.50
2019-01-19T12:53:52.355Z,10.70
2019-01-19T12:56:19.340Z,12.00
2019-01-19T12:58:46.296Z,16.07
2019-01-19T13:01:13.328Z,10.97
2019-01-19T13:03:40.340Z,12.63
2019-01-19T13:06:35.171Z,11.77
2019-01-19T13:09:12.442Z,11.80
2019-01-19T13:11:59.553Z,11.70
2019-01-19T13:14:27.231Z,10.47
2019-01-19T13:17:21.930Z,10.43
2019-01-19T13:19:59.709Z,11.33
2019-01-19T13:22:51.984Z,16.03
2019-01-19T13:25:46.629Z,11.37
2019-01-19T13:28:39.737Z,13.20
2019-01-19T13:31:25.490Z,10.47
2019-01-19T13:34:19.808Z,11.47
2019-01-19T13:37:04.721Z,9.70
2019-01-19T13:39:45.563Z,10.80
2019-01-19T13:42:36.580Z,12.17
2019-01-19T13:45:22.974Z,10.80
2019-01-19T13:48:16.842Z,12.27
2019-01-19T13:50:58.996Z,10.33
2019-01-19T13:53:44.031Z,11.20
2019-01-19T13:56:32.739Z,11.53
2019-01-19T13:59:20.485Z,14.33
2019-01-19T14:02:01.836Z,11.83
2019-01-19T14:04:49.531Z,12.23
2019-01-19T14:07:48.441Z,10.90
2019-01-19T14:10:24.464Z,16.87
2019-01-19T14:13:09.905Z,13.60
2019-01-19T14:15:56.352Z,12.07
2019-01-19T14:18:33.621Z,14.43
2019-01-19T14:21:27.003Z,12.30
2019-01-19T14:24:22.891Z,12.00
2019-01-19T14:27:08.114Z,12.17
2019-01-19T14:29:51.030Z,12.30
2019-01-19T14:32:29.198Z,11.30
2019-01-19T14:35:09.209Z,11.77
2019-01-19T14:37:55.482Z,12.27
2019-01-19T14:40:45.624Z,11.87
2019-01-19T14:43:45.803Z,11.77
2019-01-19T14:46:43.165Z,11.73
2019-01-19T14:49:36.281Z,11.50
2019-01-19T14:52:31.329Z,11.70
2019-01-19T14:55:24.013Z,14.83
2019-01-19T14:58:20.516Z,16.10
2019-01-19T15:01:02.984Z,25.57
2019-01-19T15:03:51.005Z,32.57
2019-01-19T15:06:32.592Z,14.77
2019-01-19T15:09:12.037Z,14.33
2019-01-19T15:11:54.325Z,13.10
2019-01-19T15:14:47.680Z,11.63
2019-01-19T15:17:24.748Z,12.23
2019-01-19T15:20:06.930Z,12.97
2019-01-19T15:23:05.988Z,13.37
2019-01-19T15:25:44.415Z,12.50
2019-01-19T15:28:29.740Z,11.93
2019-01-19T15:31:22.380Z,13.87
2019-01-19T15:34:03.813Z,12.90
2019-01-19T15:37:01.153Z,12.50
2019-01-19T15:39:42.414Z,11.93
2019-01-19T15:42:27.893Z,13.53
2019-01-19T15:45:39.001Z,15.77
2019-01-19T15:48:24.085Z,13.77
2019-01-19T15:51:01.441Z,13.90
2019-01-19T15:53:36.499Z,13.17
2019-01-19T15:56:34.581Z,14.73
2019-01-19T15:59:12.088Z,16.40
2019-01-19T16:02:22.800Z,13.47
2019-01-19T16:05:03.757Z,20.07
2019-01-19T16:08:00.227Z,13.03
2019-01-19T16:10:46.398Z,14.60
2019-01-19T16:13:19.348Z,14.27
2019-01-19T16:16:13.690Z,12.77
2019-01-19T16:19:03.028Z,13.50
2019-01-19T16:21:53.748Z,12.40
2019-01-19T16:24:33.184Z,13.93
2019-01-19T16:27:26.413Z,14.07
2019-01-19T16:30:07.502Z,15.40
2019-01-19T16:33:04.128Z,15.60
2019-01-19T16:35:57.828Z,14.77
2019-01-19T16:38:45.907Z,13.73
2019-01-19T16:41:43.279Z,15.57
2019-01-19T16:44:43.384Z,16.03
2019-01-19T16:47:30.181Z,15.13
2019-01-19T16:50:18.242Z,15.10
2019-01-19T16:52:57.504Z,14.93
2019-01-19T16:55:50.757Z,15.23
2019-01-19T16:58:45.708Z,16.07
2019-01-19T17:01:26.753Z,16.13
2019-01-19T17:04:06.024Z,17.13
2019-01-19T17:06:46.125Z,17.73
2019-01-19T17:09:33.122Z,15.73
2019-01-19T17:12:24.503Z,17.00
2019-01-19T17:15:01.615Z,19.07
2019-01-19T17:17:57.609Z,16.07
2019-01-19T17:20:59.457Z,18.07
2019-01-19T17:23:52.709Z,18.93
2019-01-19T17:27:05.098Z,17.63
2019-01-19T17:30:02.988Z,17.67
2019-01-19T17:32:55.438Z,18.83
2019-01-19T17:36:09.415Z,23.43
2019-01-19T17:38:55.851Z,24.80
2019-01-19T17:41:42.992Z,22.20
2019-01-19T17:44:24.265Z,24.33
2019-01-19T17:47:18.921Z,35.23
2019-01-19T17:49:58.585Z,41.97
2019-01-19T17:52:33.616Z,48.67
2019-01-19T17:55:23.212Z,38.73
2019-01-19T17:58:21.301Z,36.40
2019-01-19T18:01:11.962Z,46.20
2019-01-19T18:03:57.661Z,22.63
2019-01-19T18:06:32.793Z,22.63
2019-01-19T18:09:25.077Z,21.63
2019-01-19T18:12:22.936Z,23.27
2019-01-19T18:15:18.291Z,20.17
2019-01-19T18:18:16.197Z,22.00
2019-01-19T18:20:55.501Z,21.20
2019-01-19T18:23:48.082Z,23.47
2019-01-19T18:26:31.134Z,27.63
2019-01-19T18:29:14.649Z,29.33
2019-01-19T18:31:52.571Z,28.63
2019-01-19T18:34:37.993Z,26.60
2019-01-19T18:37:19.652Z,27.57
2019-01-19T18:39:57.023Z,26.63
2019-01-19T18:42:34.843Z,24.07
2019-01-19T18:45:29.122Z,27.57
2019-01-19T18:48:09.507Z,24.77
2019-01-19T18:51:11.009Z,31.73
2019-01-19T18:54:10.156Z,30.67
2019-01-19T18:56:51.009Z,26.60
2019-01-19T18:59:26.040Z,29.93
2019-01-19T19:02:03.004Z,28.03
2019-01-19T19:04:54.490Z,26.70
2019-01-19T19:07:46.988Z,34.53
2019-01-19T19:10:58.104Z,43.50
2019-01-19T19:14:04.204Z,46.27
2019-01-19T19:16:58.285Z,30.70
2019-01-19T19:19:35.932Z,28.97
2019-01-19T19:22:31.427Z,28.13
2019-01-19T19:25:15.540Z,27.60
2019-01-19T19:28:30.734Z,40.13
2019-01-19T19:31:40.516Z,30.50
2019-01-19T19:34:32.188Z,40.00
2019-01-19T19:37:18.572Z,32.40
2019-01-19T19:40:16.768Z,62.47
2019-01-19T19:43:10.250Z,53.77
2019-01-19T19:45:47.384Z,39.67
2019-01-19T19:48:22.251Z,35.23
2019-01-19T19:51:06.244Z,59.30
2019-01-19T19:53:33.209Z,35.57
2019-01-19T19:55:59.762Z,31.90
2019-01-19T19:58:26.821Z,35.57
2019-01-19T20:00:53.891Z,27.13
2019-01-19T20:03:20.817Z,25.43
2019-01-19T20:05:47.794Z,26.87
2019-01-19T20:08:14.745Z,32.47
2019-01-19T20:10:41.714Z,31.90
2019-01-19T20:13:08.672Z,34.37
2019-01-19T20:15:35.722Z,38.70
2019-01-19T20:18:02.687Z,38.40
2019-01-19T20:20:29.615Z,29.63
2019-01-19T20:22:56.680Z,26.53
2019-01-19T20:25:23.649Z,29.17
2019-01-19T20:27:50.580Z,29.03
2019-01-19T20:30:17.555Z,33.63
2019-01-19T20:32:44.494Z,40.80
2019-01-19T20:35:11.516Z,46.07
2019-01-19T20:37:38.568Z,40.67
2019-01-19T20:40:06.149Z,27.03
2019-01-19T20:42:33.093Z,26.57
2019-01-19T20:45:00.053Z,26.97
2019-01-19T20:47:27.022Z,24.63
2019-01-19T20:49:53.975Z,29.47
2019-01-19T20:52:20.939Z,27.13
2019-01-19T20:54:47.980Z,26.97
2019-01-19T20:57:17.846Z,27.93
2019-01-19T20:59:43.428Z,31.23
2019-01-19T21:02:10.370Z,27.83
2019-01-19T21:04:37.312Z,26.73
2019-01-19T21:07:04.264Z,29.67
2019-01-19T21:09:31.207Z,28.20
2019-01-19T21:11:58.138Z,30.23
2019-01-19T21:14:25.084Z,34.27
2019-01-19T21:16:52.023Z,26.37
2019-01-19T21:19:18.964Z,30.03
2019-01-19T21:21:45.908Z,27.80
2019-01-19T21:24:12.852Z,30.13
2019-01-19T21:26:39.791Z,32.90
2019-01-19T21:29:06.733Z,36.57
2019-01-19T21:31:33.659Z,31.40
2019-01-19T21:34:00.592Z,39.83
2019-01-19T21:36:27.576Z,29.67
2019-01-19T21:38:54.512Z,31.33
2019-01-19T21:41:21.434Z,32.30
2019-01-19T21:43:48.405Z,27.83
2019-01-19T21:46:15.325Z,31.03
2019-01-19T21:48:42.260Z,36.10
2019-01-19T21:51:09.209Z,36.40
2019-01-19T21:53:36.152Z,33.07
2019-01-19T21:56:03.104Z,35.17
2019-01-19T21:58:31.425Z,34.10
2019-01-19T22:00:58.361Z,30.27
2019-01-19T22:03:25.288Z,35.63
2019-01-19T22:05:52.235Z,36.37
2019-01-19T22:08:19.183Z,35.33
2019-01-19T22:10:46.490Z,33.17
2019-01-19T22:13:13.077Z,38.07
2019-01-19T22:15:40.027Z,34.50
2019-01-19T22:18:06.976Z,35.67
2019-01-19T22:20:33.933Z,30.10
2019-01-19T22:23:00.879Z,31.83
2019-01-19T22:25:27.806Z,34.67
2019-01-19T22:27:54.755Z,30.83
2019-01-19T22:30:23.057Z,32.70
2019-01-19T22:32:51.251Z,35.33
2019-01-19T22:35:18.205Z,34.33
2019-01-19T22:37:45.139Z,33.47
2019-01-19T22:40:14.444Z,34.83
2019-01-19T22:42:41.563Z,31.87
2019-01-19T22:45:10.337Z,35.47
2019-01-19T22:47:37.272Z,38.40
2019-01-19T22:50:06.391Z,31.77
2019-01-19T22:52:33.465Z,34.80
2019-01-19T22:55:00.415Z,35.40
2019-01-19T22:57:27.402Z,34.83
2019-01-19T22:59:56.724Z,40.43
2019-01-19T23:02:23.660Z,39.93
2019-01-19T23:04:51.072Z,40.93
2019-01-19T23:07:18.001Z,36.20
2019-01-19T23:09:44.956Z,39.30
2019-01-19T23:12:11.924Z,35.97
2019-01-19T23:14:38.865Z,39.97
2019-01-19T23:17:05.816Z,39.73
2019-01-19T23:19:32.760Z,36.03
2019-01-19T23:21:59.717Z,37.77
2019-01-19T23:24:26.656Z,39.23
2019-01-19T23:26:58.183Z,37.27
2019-01-19T23:29:25.142Z,34.77
2019-01-19T23:31:52.079Z,34.13
2019-01-19T23:34:19.032Z,38.50
2019-01-19T23:36:45.960Z,36.53
2019-01-19T23:39:12.887Z,39.33
2019-01-19T23:41:39.892Z,34.27
2019-01-19T23:44:06.829Z,34.70
2019-01-19T23:46:33.779Z,33.50
2019-01-19T23:49:00.729Z,39.87
2019-01-19T23:51:27.651Z,36.97
2019-01-19T23:53:54.587Z,36.47
2019-01-19T23:56:21.532Z,36.53
2019-01-19T23:58:48.468Z,37.67
